Saturday, May 26, 2018, 2:25 AM EDT
Back to Local

KACK, Nantucket Memorial Airport

Location: Nantucket, MA, United States Lat: 41.25
Local Time: 2:25 AM EDT ( 6:25 GMT) Lon: -70.067
Time Zone: US/Eastern Elev: 49 ft

Show me the last for .
Show Coded

Time T Td Feel RH Dir Speed Gust Alt SLP Vis Weather Sky Remarks
2018-05-26 01:53 56 54 - 93 230° 16 - 29.81 29.81 9 CLR 6-hr Min Temp (2am): 55.9°F
6-hr Max Temp (2am): 57.9°F
2018-05-26 00:53 57 52 - 83 230° 16 - 29.83 29.83 10 CLR 24-hr Min Temp (1am): 52.0°F
24-hr Max Temp (1am): 64.0°F
2018-05-25 23:53 57 52 - 83 240° 14 - 29.83 29.83 10 CLR None
2018-05-25 22:53 57 53 - 86 230° 17 - 29.84 29.84 10 CLR None
2018-05-25 21:53 56 54 - 93 230° 12 - 29.85 29.85 10 CLR None
2018-05-25 20:53 56 55 - 96 230° 15 - 29.85 29.85 9 CLR None
2018-05-25 19:53 57 54 - 89 230° 17 - 29.85 29.85 9 CLR 6-hr Min Temp (8pm): 57.0°F
6-hr Max Temp (8pm): 62.1°F
2018-05-25 18:53 59 55 - 86 240° 22 - 29.85 29.84 10 CLR Peak wind: 32 mph (28 kts) from 240° at 39 min
2018-05-25 17:53 60 55 - 83 230° 21 29 29.85 29.85 10 CLR Peak wind: 29 mph (26 kts) from 220° at 22 min
2018-05-25 16:53 59 55 - 86 230° 18 - 29.86 29.86 10 CLR None
2018-05-25 15:53 61 55 - 80 220° 18 25 29.88 29.88 10 CLR None
2018-05-25 14:53 62 56 - 80 230° 21 - 29.90 29.90 10 CLR None
2018-05-25 13:53 61 56 - 83 230° 20 - 29.92 29.92 10 CLR Peak wind: 29 mph (26 kts) from 240° at 59 min
6-hr Min Temp (2pm): 57.0°F
6-hr Max Temp (2pm): 64.0°F
2018-05-25 12:53 62 56 - 80 240° 23 29 29.93 29.93 10 CLR Peak wind: 29 mph (26 kts) from 240° at 15 min
2018-05-25 11:53 63 56 - 77 240° 18 - 29.95 29.95 10 CLR None
2018-05-25 10:53 63 56 - 77 240° 17 25 29.97 29.97 10 CLR None
2018-05-25 09:53 61 55 - 80 240° 20 - 29.99 29.99 10 CLR Peak wind: 29 mph (26 kts) from 240° at 55 min
2018-05-25 08:53 59 54 - 83 240° 16 - 30.00 30.00 10 CLR None
2018-05-25 07:53 57 54 - 89 240° 17 - 30.01 30.01 10 CLR 6-hr Min Temp (8am): 52.0°F
6-hr Max Temp (8am): 57.0°F
2018-05-25 06:53 55 54 - 96 230° 15 - 30.02 30.02 10 CLR None
2018-05-25 06:03 53 53 - 100 220° 14 - 30.02 - 7 CLR None
2018-05-25 05:53 53 53 - 100 220° 14 - 30.02 30.02 0 FG VV002 None
2018-05-25 04:59 52 52 - 100 210° 14 - 30.03 - 0 FG VV002 None
2018-05-25 04:53 52 52 - 100 210° 14 - 30.03 30.03 0 FG VV002 None
2018-05-25 04:46 52 52 - 100 210° 14 - 30.04 - 0 FG VV002 None
2018-05-25 04:38 52 52 - 100 220° 13 - 30.04 - 0 FG VV002 None
2018-05-25 04:30 52 52 - 100 220° 14 - 30.04 - 0 FG VV002 None
2018-05-25 04:20 52 52 - 100 220° 13 - 30.04 - 0 FG VV002 None
2018-05-25 04:11 52 52 - 100 220° 14 - 30.04 - 0 FG VV002 None
2018-05-25 03:53 52 52 - 100 220° 14 - 30.05 30.04 0 FG VV002 None
2018-05-25 02:53 52 52 - 100 210° 13 - 30.07 30.06 0 FG VV002 None
2018-05-25 02:51 52 52 - 100 210° 12 - 30.07 - 0 FG VV002 None
2018-05-25 02:38 52 52 - 100 220° 12 - 30.07 - 0 FG VV002 None

Support USWX by starting your Amazon purchase here.